Terminal Aerodrome Forecast
Issued by NWS

Home | Current Version | Previous Version | Text Only | Print | Product List | Glossary On
Versions: 1 2 3 4 5 6 7 8 9 10 11 12 13 14 15
000
FTUS42 KMLB 221700
TAFISM
TAF
KISM 221739Z 2218/2318 17006KT P6SM VCTS SCT035CB BKN080 OVC250
      TEMPO 2218/2221 3SM TSRA BKN025CB OVC050
     FM230000 16004KT P6SM -RA SCT050 BKN090
     FM230400 VRB03KT P6SM FEW030 SCT120 BKN250=

USA.gov is the U.S. government's official web portal to all federal, state and local government web resources and services.